createdAt,value
2018-06-05T00:02:21.530Z,58.33
2018-06-05T00:04:53.665Z,70.03
2018-06-05T00:07:25.563Z,81.37
2018-06-05T00:09:58.117Z,57.77
2018-06-05T00:12:29.972Z,65.47
2018-06-05T00:15:02.142Z,68.30
2018-06-05T00:17:34.102Z,65.27
2018-06-05T00:20:06.989Z,66.90
2018-06-05T00:22:38.910Z,60.37
2018-06-05T00:25:11.106Z,84.73
2018-06-05T00:27:42.927Z,75.37
2018-06-05T00:30:15.209Z,67.23
2018-06-05T00:32:46.782Z,77.27
2018-06-05T00:35:18.765Z,59.53
2018-06-05T00:37:50.355Z,61.33
2018-06-05T00:40:22.561Z,59.97
2018-06-05T00:42:54.395Z,59.87
2018-06-05T00:45:26.515Z,83.60
2018-06-05T00:47:58.625Z,72.27
2018-06-05T00:50:30.713Z,73.23
2018-06-05T00:53:02.700Z,67.17
2018-06-05T00:55:34.886Z,68.80
2018-06-05T00:58:06.764Z,77.33
2018-06-05T01:00:39.010Z,67.93
2018-06-05T01:03:10.871Z,72.73
2018-06-05T01:05:43.015Z,73.13
2018-06-05T01:08:14.940Z,69.90
2018-06-05T01:10:46.990Z,63.43
2018-06-05T01:13:19.057Z,65.83
2018-06-05T01:15:51.190Z,68.57
2018-06-05T01:18:23.189Z,59.13
2018-06-05T01:20:56.669Z,76.50
2018-06-05T01:23:28.430Z,81.70
2018-06-05T01:26:00.474Z,78.60
2018-06-05T01:28:32.313Z,60.77
2018-06-05T01:31:04.321Z,65.33
2018-06-05T01:33:36.151Z,62.60
2018-06-05T01:36:08.197Z,57.83
2018-06-05T01:38:40.102Z,76.70
2018-06-05T01:41:11.780Z,61.77
2018-06-05T01:43:43.662Z,75.60
2018-06-05T01:46:14.885Z,69.43
2018-06-05T01:48:46.960Z,61.27
2018-06-05T01:51:18.809Z,71.10
2018-06-05T01:53:51.124Z,72.73
2018-06-05T01:56:24.078Z,72.13
2018-06-05T01:58:56.035Z,77.27
2018-06-05T02:01:28.185Z,71.53
2018-06-05T02:04:00.181Z,76.03
2018-06-05T02:06:32.361Z,61.87
2018-06-05T02:09:04.834Z,73.27
2018-06-05T02:11:36.944Z,64.40
2018-06-05T02:14:08.768Z,57.70
2018-06-05T02:16:40.787Z,73.57
2018-06-05T02:19:12.741Z,71.73
2018-06-05T02:21:46.857Z,77.93
2018-06-05T02:24:18.710Z,58.10
2018-06-05T02:26:50.686Z,77.13
2018-06-05T02:29:22.524Z,80.07
2018-06-05T02:31:54.808Z,60.93
2018-06-05T02:34:26.643Z,75.60
2018-06-05T02:36:58.986Z,70.73
2018-06-05T02:39:29.800Z,68.40
2018-06-05T02:42:01.970Z,62.80
2018-06-05T02:44:33.805Z,47.83
2018-06-05T02:47:05.152Z,62.00
2018-06-05T02:49:37.168Z,77.30
2018-06-05T02:52:09.145Z,44.80
2018-06-05T02:54:40.802Z,61.00
2018-06-05T02:57:12.939Z,62.33
2018-06-05T02:59:44.770Z,67.83
2018-06-05T03:02:17.102Z,75.10
2018-06-05T03:04:49.177Z,52.57
2018-06-05T03:07:21.118Z,74.00
2018-06-05T03:09:51.893Z,49.10
2018-06-05T03:12:24.704Z,69.40
2018-06-05T03:14:56.713Z,65.30
2018-06-05T03:17:32.846Z,77.03
2018-06-05T03:20:04.817Z,59.83
2018-06-05T03:22:38.133Z,59.03
2018-06-05T03:25:10.044Z,69.10
2018-06-05T03:27:42.170Z,66.17
2018-06-05T03:30:14.039Z,72.63
2018-06-05T03:32:46.041Z,62.17
2018-06-05T03:35:17.942Z,53.83
2018-06-05T03:37:49.142Z,56.20
2018-06-05T03:40:20.999Z,55.17
2018-06-05T03:42:52.995Z,65.03
2018-06-05T03:45:25.124Z,56.33
2018-06-05T03:47:56.457Z,54.37
2018-06-05T03:50:28.518Z,51.20
2018-06-05T03:53:01.402Z,59.40
2018-06-05T03:55:33.382Z,63.93
2018-06-05T03:58:05.181Z,68.20
2018-06-05T04:00:36.823Z,56.97
2018-06-05T04:03:08.874Z,49.57
2018-06-05T04:05:40.742Z,59.00
2018-06-05T04:08:13.266Z,64.50
2018-06-05T04:10:45.689Z,51.90
2018-06-05T04:13:17.007Z,57.97
2018-06-05T04:15:48.184Z,65.37
2018-06-05T04:18:20.776Z,73.27
2018-06-05T04:20:52.685Z,86.93
2018-06-05T04:23:26.380Z,80.03
2018-06-05T04:25:58.306Z,81.63
2018-06-05T04:28:30.374Z,81.80
2018-06-05T04:31:02.342Z,90.90
2018-06-05T04:33:34.535Z,75.43
2018-06-05T04:36:06.188Z,90.77
2018-06-05T04:38:38.382Z,76.03
2018-06-05T04:41:10.097Z,96.00
2018-06-05T04:43:42.238Z,105.33
2018-06-05T04:46:14.520Z,114.80
2018-06-05T04:48:46.079Z,93.90
2018-06-05T04:51:17.990Z,92.03
2018-06-05T04:53:50.119Z,91.73
2018-06-05T04:56:22.168Z,79.73
2018-06-05T04:58:53.418Z,82.43
2018-06-05T05:01:25.689Z,72.53
2018-06-05T05:03:57.929Z,75.10
2018-06-05T05:06:29.734Z,73.83
2018-06-05T05:09:01.857Z,60.60
2018-06-05T05:11:33.762Z,56.95
2018-06-05T05:14:05.881Z,58.38
2018-06-05T05:16:37.935Z,63.08
2018-06-05T05:19:09.908Z,57.57
2018-06-05T05:21:41.749Z,61.27
2018-06-05T05:24:14.993Z,62.40
2018-06-05T05:26:46.933Z,77.57
2018-06-05T05:29:19.329Z,60.97
2018-06-05T05:31:51.151Z,59.03
2018-06-05T05:34:24.504Z,65.57
2018-06-05T05:36:56.578Z,92.57
2018-06-05T05:39:28.439Z,76.23
2018-06-05T05:42:00.323Z,80.97
2018-06-05T05:44:32.318Z,73.42
2018-06-05T05:47:04.875Z,82.25
2018-06-05T05:49:36.142Z,77.50
2018-06-05T05:52:07.070Z,84.05
2018-06-05T05:54:39.142Z,73.07
2018-06-05T05:57:11.906Z,67.97
2018-06-05T05:59:43.954Z,71.53
2018-06-05T06:02:15.665Z,87.70
2018-06-05T06:04:48.293Z,81.72
2018-06-05T06:07:20.289Z,80.65
2018-06-05T06:09:54.525Z,95.87
2018-06-05T06:12:26.162Z,109.10
2018-06-05T06:14:58.118Z,78.07
2018-06-05T06:17:29.290Z,73.27
2018-06-05T06:20:01.538Z,58.60
2018-06-05T06:22:33.485Z,84.60
2018-06-05T06:25:05.614Z,63.92
2018-06-05T06:27:37.494Z,76.60
2018-06-05T06:30:09.622Z,79.37
2018-06-05T06:32:41.670Z,74.55
2018-06-05T06:35:14.135Z,53.70
2018-06-05T06:37:46.098Z,64.27
2018-06-05T06:40:18.444Z,59.88
2018-06-05T06:42:50.385Z,68.67
2018-06-05T06:45:22.704Z,63.28
2018-06-05T06:47:54.650Z,67.27
2018-06-05T06:50:25.729Z,63.98
2018-06-05T06:52:57.594Z,68.75
2018-06-05T06:55:28.939Z,75.15
2018-06-05T06:58:01.870Z,55.50
2018-06-05T07:00:33.681Z,93.40
2018-06-05T07:03:05.601Z,69.07
2018-06-05T07:05:37.534Z,59.65
2018-06-05T07:08:09.400Z,74.32
2018-06-05T07:10:41.577Z,58.17
2018-06-05T07:13:13.343Z,58.87
2018-06-05T07:15:45.659Z,52.67
2018-06-05T07:18:18.593Z,61.37
2018-06-05T07:20:50.845Z,60.65
2018-06-05T07:23:21.888Z,51.05
2018-06-05T07:25:54.196Z,48.30
2018-06-05T07:28:26.221Z,61.40
2018-06-05T07:30:58.387Z,45.85
2018-06-05T07:33:30.229Z,49.00
2018-06-05T07:36:02.569Z,54.45
2018-06-05T07:38:34.535Z,49.13
2018-06-05T07:41:07.036Z,61.92
2018-06-05T07:43:37.881Z,57.30
2018-06-05T07:46:10.634Z,50.50
2018-06-05T07:48:42.587Z,51.73
2018-06-05T07:51:14.938Z,46.42
2018-06-05T07:53:46.993Z,57.95
2018-06-05T07:56:19.369Z,49.40
2018-06-05T07:58:52.258Z,57.93
2018-06-05T08:01:24.279Z,56.68
2018-06-05T08:03:56.056Z,41.35
2018-06-05T08:06:28.675Z,44.93
2018-06-05T08:09:00.799Z,53.42
2018-06-05T08:11:33.072Z,56.90
2018-06-05T08:14:05.037Z,60.63
2018-06-05T08:16:37.191Z,44.25
2018-06-05T08:19:09.077Z,48.98
2018-06-05T08:21:41.350Z,56.27
2018-06-05T08:24:13.502Z,49.38
2018-06-05T08:26:55.830Z,51.85
2018-06-05T08:29:27.620Z,62.23
2018-06-05T08:31:59.670Z,48.65
2018-06-05T08:34:31.100Z,37.42
2018-06-05T08:37:03.667Z,53.80
2018-06-05T08:39:35.386Z,41.23
2018-06-05T08:42:07.500Z,40.75
2018-06-05T08:44:39.656Z,47.62
2018-06-05T08:47:11.954Z,50.28
2018-06-05T08:49:43.978Z,57.43
2018-06-05T08:52:16.393Z,46.57
2018-06-05T08:54:48.200Z,46.05
2018-06-05T08:57:20.442Z,46.30
2018-06-05T08:59:53.205Z,41.60
2018-06-05T09:02:25.177Z,44.07
2018-06-05T09:04:56.985Z,36.77
2018-06-05T09:07:28.860Z,31.23
2018-06-05T09:10:00.789Z,45.58
2018-06-05T09:12:32.545Z,43.65
2018-06-05T09:15:04.185Z,45.70
2018-06-05T09:17:35.910Z,39.40
2018-06-05T09:20:06.625Z,47.95
2018-06-05T09:22:38.374Z,34.87
2018-06-05T09:25:10.067Z,42.50
2018-06-05T09:27:41.972Z,51.23
2018-06-05T09:30:13.428Z,48.90
2018-06-05T09:32:45.202Z,40.67
2018-06-05T09:35:15.861Z,56.20
2018-06-05T09:37:47.658Z,45.07
2018-06-05T09:40:19.494Z,53.30
2018-06-05T09:42:51.120Z,50.23
2018-06-05T09:45:22.762Z,50.40
2018-06-05T09:47:54.665Z,47.43
2018-06-05T09:50:26.334Z,48.90
2018-06-05T09:52:57.826Z,63.93
2018-06-05T09:55:29.284Z,53.13
2018-06-05T09:58:01.257Z,50.40
2018-06-05T10:00:39.047Z,64.20
2018-06-05T10:03:11.006Z,53.63
2018-06-05T10:05:42.561Z,48.30
2018-06-05T10:08:14.460Z,58.20
2018-06-05T10:10:46.076Z,49.90
2018-06-05T10:13:18.044Z,54.90
2018-06-05T10:15:49.899Z,57.50
2018-06-05T10:18:21.652Z,61.73
2018-06-05T10:20:53.314Z,56.83
2018-06-05T10:23:25.179Z,62.43
2018-06-05T10:25:56.883Z,64.23
2018-06-05T10:28:28.622Z,59.07
2018-06-05T10:31:00.140Z,51.87
2018-06-05T10:33:32.034Z,66.77
2018-06-05T10:36:04.134Z,61.73
2018-06-05T10:38:36.344Z,54.37
2018-06-05T10:41:07.984Z,50.03
2018-06-05T10:43:39.564Z,62.37
2018-06-05T10:46:11.124Z,54.90
2018-06-05T10:48:43.076Z,69.87
2018-06-05T10:51:15.078Z,78.33
2018-06-05T10:53:46.213Z,55.20
2018-06-05T10:56:18.608Z,51.07
2018-06-05T10:58:50.995Z,45.37
2018-06-05T11:01:24.024Z,51.00
2018-06-05T11:03:56.131Z,56.77
2018-06-05T11:06:27.844Z,51.00
2018-06-05T11:08:59.692Z,45.33
2018-06-05T11:11:31.096Z,50.17
2018-06-05T11:14:03.027Z,63.43
2018-06-05T11:16:34.602Z,67.97
2018-06-05T11:19:06.438Z,53.60
2018-06-05T11:21:37.950Z,52.30
2018-06-05T11:24:08.870Z,47.23
2018-06-05T11:26:44.955Z,73.47
2018-06-05T11:29:17.110Z,49.93
2018-06-05T11:31:48.718Z,55.07
2018-06-05T11:34:20.804Z,74.50
2018-06-05T11:36:52.652Z,50.07
2018-06-05T11:39:24.603Z,63.77
2018-06-05T11:41:56.094Z,52.97
2018-06-05T11:44:27.907Z,48.00
2018-06-05T11:46:59.867Z,46.60
2018-06-05T11:49:32.138Z,50.87
2018-06-05T11:52:03.580Z,55.87
2018-06-05T11:54:34.913Z,64.87
2018-06-05T11:57:05.606Z,66.83
2018-06-05T11:59:37.360Z,66.73
2018-06-05T12:02:09.904Z,57.27
2018-06-05T12:04:41.702Z,51.07
2018-06-05T12:07:13.448Z,59.43
2018-06-05T12:09:45.634Z,60.00
2018-06-05T12:12:17.420Z,58.70
2018-06-05T12:14:49.231Z,68.40
2018-06-05T12:17:20.623Z,53.27
2018-06-05T12:19:51.576Z,52.27
2018-06-05T12:22:23.139Z,60.50
2018-06-05T12:24:54.895Z,53.97
2018-06-05T12:27:25.845Z,67.47
2018-06-05T12:29:58.049Z,57.13
2018-06-05T12:32:29.816Z,50.47
2018-06-05T12:35:01.751Z,53.67
2018-06-05T12:37:32.478Z,62.30
2018-06-05T12:40:03.500Z,58.03
2018-06-05T12:42:35.196Z,47.67
2018-06-05T12:45:07.322Z,65.07
2018-06-05T12:47:39.125Z,58.87
2018-06-05T12:50:11.158Z,56.50
2018-06-05T12:52:42.557Z,49.07
2018-06-05T12:55:14.363Z,51.60
2018-06-05T12:57:45.937Z,53.30
2018-06-05T13:00:17.784Z,58.33
2018-06-05T13:02:50.949Z,57.27
2018-06-05T13:05:22.990Z,52.73
2018-06-05T13:07:54.558Z,55.83
2018-06-05T13:10:26.571Z,52.77
2018-06-05T13:12:58.007Z,56.07
2018-06-05T13:15:29.670Z,55.17
2018-06-05T13:18:01.331Z,61.37
2018-06-05T13:20:33.269Z,57.03
2018-06-05T13:23:04.735Z,49.67
2018-06-05T13:25:36.424Z,55.43
2018-06-05T13:28:08.349Z,71.23
2018-06-05T13:30:40.256Z,59.80
2018-06-05T13:33:11.946Z,47.23
2018-06-05T13:35:44.257Z,64.70
2018-06-05T13:38:16.038Z,57.97
2018-06-05T13:40:47.811Z,57.47
2018-06-05T13:43:19.543Z,64.13
2018-06-05T13:45:51.338Z,60.80
2018-06-05T13:48:22.887Z,58.77
2018-06-05T13:50:55.082Z,57.07
2018-06-05T13:53:26.802Z,55.90
2018-06-05T13:55:58.908Z,52.60
2018-06-05T13:58:30.817Z,63.53
2018-06-05T14:01:03.942Z,53.30
2018-06-05T14:03:36.746Z,47.50
2018-06-05T14:06:08.690Z,48.47
2018-06-05T14:08:40.558Z,54.97
2018-06-05T14:11:12.325Z,65.77
2018-06-05T14:13:44.224Z,52.30
2018-06-05T14:16:16.205Z,59.27
2018-06-05T14:18:47.669Z,61.47
2018-06-05T14:21:19.799Z,55.03
2018-06-05T14:23:51.488Z,59.13
2018-06-05T14:26:22.996Z,66.60
2018-06-05T14:28:54.725Z,49.57
2018-06-05T14:31:26.806Z,67.37
2018-06-05T14:33:58.746Z,56.27
2018-06-05T14:36:30.525Z,50.90
2018-06-05T14:39:02.037Z,49.20
2018-06-05T14:41:33.954Z,59.13
2018-06-05T14:44:05.611Z,51.20
2018-06-05T14:46:37.841Z,50.47
2018-06-05T14:49:09.253Z,56.00
2018-06-05T14:51:41.055Z,50.33
2018-06-05T14:54:11.695Z,58.63
2018-06-05T14:56:43.636Z,48.23
2018-06-05T14:59:14.751Z,53.80
2018-06-05T15:01:46.714Z,60.93
2018-06-05T15:04:19.311Z,45.93
2018-06-05T15:06:52.014Z,51.53
2018-06-05T15:09:23.670Z,55.00
2018-06-05T15:11:54.963Z,63.87
2018-06-05T15:14:26.652Z,43.87
2018-06-05T15:16:58.372Z,48.30
2018-06-05T15:19:30.165Z,68.33
2018-06-05T15:22:01.859Z,61.20
2018-06-05T15:24:32.882Z,58.60
2018-06-05T15:27:04.537Z,58.10
2018-06-05T15:29:35.091Z,55.53
2018-06-05T15:32:07.098Z,49.10
2018-06-05T15:34:38.654Z,49.97
2018-06-05T15:37:10.612Z,52.70
2018-06-05T15:39:42.407Z,57.80
2018-06-05T15:42:13.967Z,51.00
2018-06-05T15:44:45.508Z,45.30
2018-06-05T15:47:16.384Z,55.33
2018-06-05T15:49:47.908Z,56.87
2018-06-05T15:52:19.608Z,55.17
2018-06-05T15:54:51.624Z,43.37
2018-06-05T15:57:22.829Z,58.40
2018-06-05T15:59:54.574Z,43.67
2018-06-05T16:02:26.328Z,47.60
2018-06-05T16:04:59.320Z,57.43
2018-06-05T16:07:31.178Z,56.80
2018-06-05T16:10:02.599Z,51.63
2018-06-05T16:12:35.066Z,55.43
2018-06-05T16:15:06.726Z,47.33
2018-06-05T16:17:37.576Z,50.00
2018-06-05T16:20:09.461Z,58.20
2018-06-05T16:22:41.352Z,52.90
2018-06-05T16:25:12.907Z,47.80
2018-06-05T16:27:44.988Z,48.33
2018-06-05T16:30:16.797Z,66.80
2018-06-05T16:32:48.380Z,48.10
2018-06-05T16:35:19.863Z,52.77
2018-06-05T16:37:51.647Z,64.67
2018-06-05T16:42:43.422Z,48.73
2018-06-05T16:45:15.140Z,44.80
2018-06-05T16:47:46.695Z,40.50
2018-06-05T16:50:18.679Z,54.30
2018-06-05T16:52:49.134Z,48.70
2018-06-05T16:55:20.359Z,43.07
2018-06-05T16:57:51.447Z,51.57
2018-06-05T17:00:22.906Z,48.93
2018-06-05T17:02:54.261Z,51.63
2018-06-05T17:05:27.007Z,50.83
2018-06-05T17:07:58.450Z,43.27
2018-06-05T17:10:30.271Z,40.40
2018-06-05T17:13:01.909Z,48.67
2018-06-05T17:15:33.634Z,38.43
2018-06-05T17:18:05.235Z,52.53
2018-06-05T17:20:37.330Z,33.87
2018-06-05T17:23:08.897Z,49.67
2018-06-05T17:25:40.713Z,43.70
2018-06-05T17:28:12.790Z,43.17
2018-06-05T17:30:44.659Z,41.43
2018-06-05T17:33:16.184Z,46.03
2018-06-05T17:35:48.194Z,49.97
2018-06-05T17:38:19.948Z,48.93
2018-06-05T17:40:51.769Z,51.10
2018-06-05T17:43:23.224Z,52.23
2018-06-05T17:45:55.082Z,43.20
2018-06-05T17:48:26.780Z,57.80
2018-06-05T17:50:57.896Z,51.87
2018-06-05T17:53:29.576Z,50.67
2018-06-05T17:56:01.309Z,52.87
2018-06-05T17:58:32.858Z,53.53
2018-06-05T18:01:04.676Z,50.40
2018-06-05T18:03:36.088Z,47.53
2018-06-05T18:06:08.100Z,55.60
2018-06-05T18:08:39.593Z,46.93
2018-06-05T18:11:11.466Z,47.27
2018-06-05T18:13:42.919Z,57.53
2018-06-05T18:16:14.000Z,44.23
2018-06-05T18:18:45.514Z,51.17
2018-06-05T18:21:17.947Z,46.73
2018-06-05T18:23:49.679Z,46.20
2018-06-05T18:26:21.705Z,51.20
2018-06-05T18:28:53.300Z,50.27
2018-06-05T18:31:24.929Z,47.87
2018-06-05T18:33:56.471Z,45.80
2018-06-05T18:36:28.378Z,46.40
2018-06-05T18:39:00.102Z,47.93
2018-06-05T18:41:31.834Z,50.63
2018-06-05T18:44:03.460Z,53.60
2018-06-05T18:46:35.136Z,52.43
2018-06-05T18:49:06.757Z,53.30
2018-06-05T18:51:38.237Z,41.60
2018-06-05T18:54:09.807Z,55.63
2018-06-05T18:56:41.951Z,46.83
2018-06-05T18:59:13.446Z,51.63
2018-06-05T19:01:45.949Z,46.80
2018-06-05T19:04:17.480Z,46.53
2018-06-05T19:07:00.476Z,49.93
2018-06-05T19:09:32.878Z,40.30
2018-06-05T19:12:04.624Z,54.07
2018-06-05T19:14:36.293Z,54.47
2018-06-05T19:17:08.209Z,47.20
2018-06-05T19:19:40.040Z,44.67
2018-06-05T19:22:11.901Z,45.80
2018-06-05T19:24:43.410Z,44.10
2018-06-05T19:27:15.274Z,55.23
2018-06-05T19:29:47.023Z,41.70
2018-06-05T19:32:19.041Z,42.27
2018-06-05T19:34:50.392Z,42.80
2018-06-05T19:37:21.323Z,56.83
2018-06-05T19:39:52.905Z,42.67
2018-06-05T19:42:23.855Z,50.53
2018-06-05T19:44:55.447Z,41.73
2018-06-05T19:47:27.586Z,44.57
2018-06-05T19:49:59.252Z,48.07
2018-06-05T19:52:31.131Z,50.57
2018-06-05T19:55:02.792Z,51.10
2018-06-05T19:57:34.466Z,52.80
2018-06-05T20:00:06.904Z,57.97
2018-06-05T20:02:38.716Z,58.57
2018-06-05T20:05:10.344Z,55.83
2018-06-05T20:07:42.769Z,62.40
2018-06-05T20:10:14.389Z,55.17
2018-06-05T20:12:46.127Z,51.30
2018-06-05T20:15:17.613Z,47.53
2018-06-05T20:17:49.390Z,50.50
2018-06-05T20:20:20.910Z,52.53
2018-06-05T20:22:53.361Z,48.37
2018-06-05T20:25:24.913Z,50.77
2018-06-05T20:27:56.566Z,44.93
2018-06-05T20:30:28.069Z,53.13
2018-06-05T20:33:00.132Z,53.07
2018-06-05T20:35:31.650Z,59.77
2018-06-05T20:38:04.043Z,51.53
2018-06-05T20:40:35.497Z,64.87
2018-06-05T20:43:07.843Z,56.83
2018-06-05T20:45:39.245Z,51.53
2018-06-05T20:48:11.122Z,49.57
2018-06-05T20:50:42.731Z,55.47
2018-06-05T20:53:14.462Z,73.03
2018-06-05T20:55:46.154Z,58.73
2018-06-05T20:58:18.207Z,66.57
2018-06-05T21:00:49.979Z,59.20
2018-06-05T21:03:21.518Z,53.10
2018-06-05T21:05:53.286Z,64.87
2018-06-05T21:08:26.128Z,70.00
2018-06-05T21:10:57.560Z,63.40
2018-06-05T21:13:29.508Z,72.83
2018-06-05T21:16:01.074Z,50.50
2018-06-05T21:18:33.542Z,51.43
2018-06-05T21:21:05.200Z,73.77
2018-06-05T21:23:37.062Z,49.00
2018-06-05T21:26:08.610Z,57.93
2018-06-05T21:28:40.598Z,59.20
2018-06-05T21:31:11.363Z,67.70
2018-06-05T21:33:43.170Z,53.13
2018-06-05T21:36:14.956Z,48.50
2018-06-05T21:38:47.209Z,61.70
2018-06-05T21:41:18.897Z,53.93
2018-06-05T21:43:50.549Z,55.70
2018-06-05T21:46:22.033Z,46.37
2018-06-05T21:48:53.930Z,58.70
2018-06-05T21:51:25.591Z,51.23
2018-06-05T21:53:57.370Z,57.13
2018-06-05T21:56:29.832Z,58.17
2018-06-05T21:59:01.905Z,55.40
2018-06-05T22:01:33.617Z,60.23
2018-06-05T22:04:05.639Z,55.03
2018-06-05T22:06:37.436Z,61.40
2018-06-05T22:09:10.775Z,53.20
2018-06-05T22:11:42.437Z,65.80
2018-06-05T22:14:14.136Z,53.20
2018-06-05T22:16:45.969Z,52.87
2018-06-05T22:19:17.528Z,53.20
2018-06-05T22:21:48.139Z,60.17
2018-06-05T22:24:19.955Z,55.13
2018-06-05T22:26:51.590Z,58.07
2018-06-05T22:29:23.295Z,61.67
2018-06-05T22:31:54.723Z,62.70
2018-06-05T22:34:26.706Z,68.73
2018-06-05T22:36:58.184Z,64.90
2018-06-05T22:39:30.690Z,52.60
2018-06-05T22:42:02.526Z,68.73
2018-06-05T22:44:34.579Z,73.03
2018-06-05T22:47:06.311Z,64.97
2018-06-05T22:49:38.620Z,67.27
2018-06-05T22:52:10.278Z,55.80
2018-06-05T22:54:42.068Z,62.67
2018-06-05T22:57:13.493Z,78.80
2018-06-05T22:59:45.096Z,77.90
2018-06-05T23:02:16.660Z,65.33
2018-06-05T23:04:48.651Z,75.37
2018-06-05T23:07:20.315Z,83.83
2018-06-05T23:09:54.174Z,65.70
2018-06-05T23:12:25.658Z,69.47
2018-06-05T23:14:57.638Z,74.70
2018-06-05T23:17:29.170Z,60.03
2018-06-05T23:20:00.895Z,57.87
2018-06-05T23:22:32.513Z,54.17
2018-06-05T23:25:04.887Z,67.10
2018-06-05T23:27:36.562Z,66.53
2018-06-05T23:30:08.621Z,57.80
2018-06-05T23:32:40.053Z,62.27
2018-06-05T23:35:11.836Z,53.73
2018-06-05T23:37:43.287Z,76.90
2018-06-05T23:40:14.943Z,57.20
2018-06-05T23:42:46.495Z,63.23
2018-06-05T23:45:18.309Z,54.07
2018-06-05T23:47:49.680Z,67.23
2018-06-05T23:50:21.504Z,61.03
2018-06-05T23:52:53.019Z,57.13
2018-06-05T23:55:24.675Z,61.87
2018-06-05T23:57:56.202Z,50.40
